This is the latest recevied weather packets stored in our database for station/object OH6HPS. If no packets are shown the sender has not sent any weather packets the latest 10 day(s).
| Time | Temp. | Humidity | Pressure | Rain* | Wind** | Luminosity | Snow |
|---|---|---|---|---|---|---|---|
| 1788086042 | 18.89° C | 91% | 1006.3 hPa | 4.83 mm | - | 190 W/m² | - |
| 1788085443 | 19.44° C | 88% | 1006.4 hPa | 3.81 mm | - | 113 W/m² | - |
| 1788084844 | 20° C | 84% | 1006.2 hPa | 0 mm | - | 100 W/m² | - |
| 1788084242 | 20° C | 82% | 1006.1 hPa | 0 mm | - | 81 W/m² | - |
| 1788083643 | 20° C | 86% | 1006.1 hPa | 0 mm | - | 238 W/m² | - |
| 1788083042 | 20° C | 85% | 1006.1 hPa | 0 mm | - | 287 W/m² | - |
| 1788082442 | 19.44° C | 87% | 1006.1 hPa | 0 mm | - | 260 W/m² | - |
| 1788081843 | 18.89° C | 89% | 1006.2 hPa | 0 mm | - | 222 W/m² | - |
| 1788081243 | 18.89° C | 89% | 1006.2 hPa | 0 mm | - | 130 W/m² | - |
| 1788080642 | 18.33° C | 91% | 1006.3 hPa | 0 mm | - | 150 W/m² | - |
| 1788080043 | 18.33° C | 91% | 1006.2 hPa | 0 mm | - | 85 W/m² | - |
| 1788079443 | 18.33° C | 90% | 1006.2 hPa | 0 mm | - | 72 W/m² | - |
| 1788078842 | 18.33° C | 90% | 1006.1 hPa | 0 mm | - | 49 W/m² | - |
| 1788078242 | 18.33° C | 90% | 1006.1 hPa | 0 mm | - | 70 W/m² | - |
| 1788077642 | 18.33° C | 90% | 1006.1 hPa | 0 mm | - | 74 W/m² | - |
| 1788077043 | 17.78° C | 90% | 1006.1 hPa | 0 mm | - | 72 W/m² | - |
| 1788076442 | 17.78° C | 90% | 1006.1 hPa | 0 mm | - | 58 W/m² | - |
| 1788075842 | 17.78° C | 90% | 1006.1 hPa | 0 mm | - | 72 W/m² | - |
| 1788075242 | 18.33° C | 90% | 1006.1 hPa | 0 mm | - | 72 W/m² | - |
| 1788074642 | 18.33° C | 90% | 1006.1 hPa | 0 mm | - | 81 W/m² | - |
| 1788074042 | 17.78° C | 91% | 1006.1 hPa | 0 mm | - | 127 W/m² | - |
| 1788073443 | 17.78° C | 91% | 1006.1 hPa | 0 mm | - | 102 W/m² | - |
| 1788072843 | 17.78° C | 91% | 1006.1 hPa | 0 mm | - | 58 W/m² | - |
| 1788072243 | 17.78° C | 91% | 1006 hPa | 0 mm | - | 70 W/m² | - |
| 1788071642 | 17.78° C | 91% | 1006 hPa | 0 mm | - | 86 W/m² | - |
* Rain latest hour (hover to see other rain measurements)
** Current wind speed in m/s (hover to see current wind gust speed)